Time;durP1;ratioP1;P1;durP2;ratioP2;P2;SDS_P1;SDS_P2;PMS_P1;PMS_P2;Temp;Humidity;BMP_temperature;BMP_pressure;BME280_temperature;BME280_humidity;BME280_pressure;Samples;Min_cycle;Max_cycle;Signal;HPM_P1;HPM_P2
2022/10/07 00:00:55;;;;;;;9.70;4.15;;;5.90;99.90;;;5.31;100.00;98551.66;6201859;23;20025;-68
2022/10/07 00:03:24;;;;;;;10.90;3.88;;;5.90;99.90;;;5.36;100.00;98556.78;6201312;23;20032;-67
2022/10/07 00:06:07;;;;;;;9.38;3.63;;;5.90;99.90;;;5.22;100.00;98557.75;6202533;23;20473;-68
2022/10/07 00:08:35;;;;;;;10.43;4.10;;;5.90;99.90;;;5.26;100.00;98555.97;6217296;23;20039;-68
2022/10/07 00:11:06;;;;;;;9.65;3.70;;;5.80;99.90;;;5.23;100.00;98564.59;6204179;23;20090;-68
2022/10/07 00:13:35;;;;;;;10.85;3.30;;;5.80;99.90;;;5.23;100.00;98558.59;6204607;23;20028;-68
2022/10/07 00:16:05;;;;;;;8.57;3.75;;;5.80;99.90;;;5.15;100.00;98566.31;6204248;23;20810;-68
2022/10/07 00:18:35;;;;;;;10.85;3.50;;;5.80;99.90;;;5.17;100.00;98561.19;6204905;23;20025;-69
2022/10/07 00:21:08;;;;;;;11.40;3.35;;;5.80;99.90;;;5.18;100.00;98557.75;6205513;23;20024;-69
2022/10/07 00:23:40;;;;;;;10.82;3.38;;;5.80;99.90;;;5.09;100.00;98555.22;6203371;23;20028;-69
2022/10/07 00:26:19;;;;;;;8.82;2.72;;;5.80;99.90;;;5.08;100.00;98551.78;6227812;23;20051;-69
2022/10/07 00:28:47;;;;;;;8.25;3.03;;;5.70;99.90;;;5.07;100.00;98551.81;6202281;23;20074;-68
2022/10/07 00:31:21;;;;;;;6.70;3.10;;;5.70;99.90;;;5.01;100.00;98550.09;6204207;23;20025;-69
2022/10/07 00:33:49;;;;;;;8.60;3.10;;;5.70;99.90;;;4.99;100.00;98546.69;6214158;23;20476;-68
2022/10/07 00:36:23;;;;;;;9.48;3.15;;;5.60;99.90;;;5.02;100.00;98541.53;6202847;23;20746;-68
2022/10/07 00:38:59;;;;;;;6.07;2.70;;;5.60;99.90;;;4.90;100.00;98545.00;6201460;23;20033;-69
2022/10/07 00:41:33;;;;;;;6.03;2.40;;;5.60;99.90;;;4.84;100.00;98541.63;6202187;23;20028;-69
2022/10/07 00:44:35;;;;;;;8.38;2.97;;;5.50;99.90;;;4.82;100.00;98541.63;6204399;23;20024;-69
2022/10/07 00:47:28;;;;;;;9.05;2.75;;;5.50;99.90;;;4.81;100.00;98533.06;6204477;23;20062;-69
2022/10/07 00:50:10;;;;;;;9.95;3.25;;;5.40;99.90;;;4.82;100.00;98528.75;6213614;23;20028;-69
2022/10/07 00:52:43;;;;;;;8.98;2.58;;;5.40;99.90;;;4.78;100.00;98529.63;6201546;23;20086;-67
2022/10/07 00:55:16;;;;;;;6.03;2.88;;;5.40;99.90;;;4.75;100.00;98524.50;6202887;23;20459;-68
2022/10/07 00:57:44;;;;;;;9.52;2.90;;;5.40;99.90;;;4.74;100.00;98525.34;6203266;23;20035;-69
2022/10/07 01:00:12;;;;;;;5.75;2.15;;;5.40;99.90;;;4.73;100.00;98515.94;6205118;23;20728;-68
2022/10/07 01:02:40;;;;;;;12.65;2.38;;;5.40;99.90;;;4.74;100.00;98515.91;6203860;23;20040;-68
2022/10/07 01:05:09;;;;;;;7.85;2.40;;;5.40;99.90;;;4.71;100.00;98515.09;6202444;23;20025;-68
2022/10/07 01:07:37;;;;;;;8.93;2.70;;;5.30;99.90;;;4.65;100.00;98517.69;6203433;23;20415;-68
2022/10/07 01:10:06;;;;;;;7.82;2.72;;;5.30;99.90;;;4.65;100.00;98510.81;6203715;23;20029;-68
2022/10/07 01:13:13;;;;;;;6.15;2.17;;;5.30;99.90;;;4.56;100.00;98511.72;6204251;23;20021;-69
2022/10/07 01:16:15;;;;;;;7.78;2.00;;;5.30;99.90;;;4.57;100.00;98504.84;6193829;23;20079;-69
2022/10/07 01:19:25;;;;;;;10.60;4.82;;;5.20;99.90;;;4.62;100.00;98497.97;6201821;23;20376;-68
2022/10/07 01:22:29;;;;;;;8.60;3.42;;;5.20;99.90;;;4.55;100.00;98496.28;6205387;23;20024;-69
2022/10/07 01:25:17;;;;;;;;;;;5.20;99.90;;;4.50;100.00;98493.75;6204513;23;20028;-68
2022/10/07 01:28:02;;;;;;;24.73;11.60;;;5.10;99.90;;;4.40;100.00;98492.03;6211320;23;20231;-69
2022/10/07 01:30:33;;;;;;;36.92;19.17;;;5.10;99.90;;;4.40;100.00;98487.78;6205545;23;20472;-69
2022/10/07 01:33:04;;;;;;;28.95;14.88;;;5.10;99.90;;;4.48;100.00;98484.31;6205180;23;20025;-69
2022/10/07 01:35:34;;;;;;;18.50;8.85;;;5.10;99.90;;;4.42;100.00;98477.47;6204912;23;20042;-69
2022/10/07 01:38:08;;;;;;;10.57;5.22;;;5.10;99.90;;;4.31;100.00;98474.97;6205099;23;20025;-67
2022/10/07 01:40:43;;;;;;;10.65;3.28;;;5.10;99.90;;;4.30;100.00;98480.94;6204577;23;20036;-68
2022/10/07 01:43:15;;;;;;;15.15;4.57;;;5.00;99.90;;;4.29;100.00;98470.66;6204533;23;20112;-68
2022/10/07 01:45:42;;;;;;;26.35;13.90;;;4.90;99.90;;;4.22;100.00;98474.13;6205016;23;20031;-69
2022/10/07 01:48:09;;;;;;;24.30;13.85;;;5.00;99.90;;;4.18;100.00;98466.41;6204101;23;20731;-68
2022/10/07 01:50:38;;;;;;;30.05;17.15;;;4.90;99.90;;;4.26;100.00;98468.13;6206692;23;20028;-69
2022/10/07 01:53:21;;;;;;;38.13;21.67;;;4.90;99.90;;;4.26;100.00;98465.53;6204992;23;20515;-67
2022/10/07 01:56:05;;;;;;;35.92;20.70;;;4.90;99.90;;;4.26;100.00;98453.53;6205996;23;20016;-69
2022/10/07 01:59:05;;;;;;;29.80;18.55;;;4.90;99.90;;;4.25;100.00;98461.28;6208177;23;20025;-68
2022/10/07 02:01:56;;;;;;;26.40;15.80;;;4.90;99.90;;;4.28;100.00;98451.81;6209670;23;20024;-68
2022/10/07 02:04:42;;;;;;;25.45;13.68;;;4.90;99.90;;;4.27;100.00;98454.41;6208035;23;20064;-68
2022/10/07 02:07:51;;;;;;;24.92;13.57;;;4.90;99.90;;;4.18;100.00;98451.00;6205831;23;20033;-68
2022/10/07 02:10:31;;;;;;;23.30;12.07;;;4.80;99.90;;;4.10;100.00;98450.16;6206435;23;20496;-68
2022/10/07 02:13:13;;;;;;;26.10;12.73;;;4.80;99.90;;;4.11;100.00;98454.47;6208884;23;20028;-68
2022/10/07 02:16:06;;;;;;;22.52;12.07;;;4.80;99.90;;;4.09;100.00;98450.19;6206909;23;20047;-68
2022/10/07 02:18:38;;;;;;;20.70;12.57;;;4.80;99.90;;;4.06;100.00;98450.16;6207437;23;20032;-68
2022/10/07 02:21:07;;;;;;;23.27;13.95;;;4.80;99.90;;;4.04;100.00;98449.31;6206011;23;20075;-68
2022/10/07 02:23:40;;;;;;;18.90;11.45;;;4.80;99.90;;;4.07;100.00;98439.06;6205352;23;20031;-68
2022/10/07 02:26:12;;;;;;;18.25;8.85;;;4.70;99.90;;;3.99;100.00;98421.06;6206136;23;20502;-68
2022/10/07 02:28:42;;;;;;;18.40;7.30;;;4.70;99.90;;;4.01;100.00;98416.78;6207420;23;20020;-69
2022/10/07 02:31:11;;;;;;;17.13;8.48;;;4.70;99.90;;;4.03;100.00;98409.94;6205999;23;20025;-69
2022/10/07 02:33:40;;;;;;;13.23;6.15;;;4.70;99.90;;;4.02;100.00;98408.25;6206674;23;20028;-69
2022/10/07 02:36:17;;;;;;;11.18;6.32;;;4.70;99.90;;;4.03;100.00;98398.81;6209319;23;20020;-67
2022/10/07 02:38:44;;;;;;;11.15;5.03;;;4.70;99.90;;;4.01;100.00;98393.66;6206326;23;20472;-68
2022/10/07 02:41:44;;;;;;;11.70;5.38;;;4.70;99.90;;;4.07;100.00;98388.53;6205730;23;20475;-69
2022/10/07 02:44:31;;;;;;;10.05;4.90;;;4.70;99.90;;;3.91;100.00;98387.72;6180738;23;20444;-68
2022/10/07 02:47:10;;;;;;;16.05;7.07;;;4.70;99.90;;;3.93;100.00;98391.13;6204945;23;20036;-69
2022/10/07 02:49:39;;;;;;;13.18;8.40;;;4.70;99.90;;;3.91;100.00;98389.44;6208776;23;20021;-68
2022/10/07 02:52:18;;;;;;;14.50;7.72;;;4.60;99.90;;;3.94;100.00;98391.97;6216014;23;20448;-68
2022/10/07 02:55:13;;;;;;;13.82;7.50;;;4.60;99.90;;;3.93;100.00;98388.56;6207364;23;20310;-69
2022/10/07 02:57:45;;;;;;;18.75;8.90;;;4.70;99.90;;;3.90;100.00;98387.72;6207017;23;20029;-69
2022/10/07 03:00:14;;;;;;;13.32;7.63;;;4.60;99.90;;;3.91;100.00;98392.00;6206421;23;20453;-68
2022/10/07 03:02:52;;;;;;;15.02;7.30;;;4.60;99.90;;;3.94;100.00;98389.41;6206639;23;20051;-68
2022/10/07 03:05:21;;;;;;;15.95;8.77;;;4.60;99.90;;;3.95;100.00;98386.00;6205157;23;20032;-69
2022/10/07 03:07:54;;;;;;;21.30;10.48;;;4.70;99.90;;;3.89;100.00;98391.16;6205260;23;20072;-69
2022/10/07 03:10:22;;;;;;;24.10;10.02;;;4.70;99.90;;;3.99;100.00;98379.97;6206324;23;20024;-69
2022/10/07 03:12:49;;;;;;;21.42;9.48;;;4.70;99.90;;;4.04;100.00;98380.84;6207815;23;20491;-67
2022/10/07 03:15:16;;;;;;;19.95;9.98;;;4.80;99.90;;;3.76;100.00;98370.66;6208379;23;20020;-68
2022/10/07 03:17:43;;;;;;;17.77;8.40;;;4.80;99.90;;;3.93;100.00;98369.75;6205525;23;20017;-69
2022/10/07 03:20:13;;;;;;;15.35;8.15;;;4.70;99.90;;;3.94;100.00;98367.16;6207899;23;20016;-67
2022/10/07 03:22:43;;;;;;;14.95;7.40;;;4.70;99.90;;;3.89;100.00;98365.47;6208700;23;20035;-68
2022/10/07 03:25:12;;;;;;;13.90;7.53;;;4.60;99.90;;;3.82;100.00;98359.50;6206605;23;20039;-69
2022/10/07 03:27:41;;;;;;;13.25;6.05;;;4.60;99.90;;;3.94;100.00;98358.59;6206122;23;20052;-69
2022/10/07 03:30:10;;;;;;;16.50;7.32;;;4.60;99.90;;;3.94;100.00;98359.44;6206503;23;20051;-69
2022/10/07 03:32:43;;;;;;;15.90;7.20;;;4.60;99.90;;;3.85;100.00;98361.19;6206141;23;20326;-68
2022/10/07 03:35:10;;;;;;;14.02;7.45;;;4.60;99.90;;;3.84;100.00;98357.78;6205732;23;20032;-68
2022/10/07 03:37:37;;;;;;;16.00;7.38;;;4.50;99.90;;;3.67;100.00;98354.41;6230512;23;20020;-69
2022/10/07 03:40:04;;;;;;;15.90;8.23;;;4.40;99.90;;;3.70;100.00;98347.56;6205556;23;20027;-69
2022/10/07 03:42:32;;;;;;;14.10;6.78;;;4.40;99.90;;;3.66;100.00;98345.00;6207838;23;20025;-68
2022/10/07 03:44:59;;;;;;;14.60;7.30;;;4.40;99.90;;;3.65;100.00;98343.28;6206793;23;20023;-67
2022/10/07 03:47:26;;;;;;;14.23;7.03;;;4.30;99.90;;;3.60;100.00;98343.28;6205563;23;20322;-68
2022/10/07 03:49:54;;;;;;;14.82;7.60;;;4.30;99.90;;;3.59;100.00;98344.16;6206119;23;20021;-68
2022/10/07 03:52:21;;;;;;;18.17;6.95;;;4.30;99.90;;;3.58;100.00;98333.88;6206368;23;20029;-68
2022/10/07 03:54:48;;;;;;;11.82;5.82;;;4.30;99.90;;;3.65;100.00;98331.31;6205835;23;20024;-69
2022/10/07 04:00:00;;;;;;;17.42;4.85;;;4.40;99.90;;;3.72;100.00;98329.59;6206111;23;20026;-69
2022/10/07 04:02:27;;;;;;;13.95;5.18;;;4.40;99.90;;;3.69;100.00;98332.97;6206220;23;20055;-69
2022/10/07 04:04:54;;;;;;;15.93;4.97;;;4.40;99.90;;;3.68;100.00;98328.72;6207723;23;20025;-68
2022/10/07 04:07:21;;;;;;;15.25;5.10;;;4.30;99.90;;;3.70;100.00;98334.72;6207595;23;20024;-68
2022/10/07 04:09:48;;;;;;;10.70;4.40;;;4.40;99.90;;;3.68;100.00;98328.72;6206945;23;20053;-68
2022/10/07 04:12:15;;;;;;;19.90;5.80;;;4.30;99.90;;;3.70;100.00;98324.44;6205886;23;20027;-69
2022/10/07 04:14:42;;;;;;;11.75;4.30;;;4.40;99.90;;;3.81;100.00;98331.25;6205896;23;20072;-68
2022/10/07 04:17:09;;;;;;;9.52;4.18;;;4.40;99.90;;;3.70;100.00;98328.72;6207159;23;20025;-68
2022/10/07 04:19:36;;;;;;;14.63;5.07;;;4.40;99.90;;;3.64;100.00;98331.31;6208061;23;20031;-68
2022/10/07 04:22:04;;;;;;;12.43;5.40;;;4.40;99.90;;;3.65;100.00;98325.28;6205098;23;20032;-68
2022/10/07 04:24:35;;;;;;;10.10;5.05;;;4.40;99.90;;;3.59;100.00;98322.78;6205594;23;20531;-68
2022/10/07 04:27:03;;;;;;;9.02;4.50;;;4.30;99.90;;;3.65;100.00;98325.28;6207693;23;20484;-68
2022/10/07 04:29:31;;;;;;;12.45;5.10;;;4.30;99.90;;;3.60;100.00;98322.75;6203817;23;20103;-68
2022/10/07 04:32:04;;;;;;;12.25;5.10;;;4.30;99.90;;;3.66;100.00;98324.47;6179555;23;20017;-68
2022/10/07 04:34:31;;;;;;;12.68;5.05;;;4.30;99.90;;;3.66;100.00;98327.03;6207307;23;20016;-68
2022/10/07 04:36:59;;;;;;;11.32;4.78;;;4.30;99.90;;;3.53;100.00;98319.34;6206734;23;20020;-67
2022/10/07 04:39:27;;;;;;;10.13;4.78;;;4.30;99.90;;;3.44;100.00;98315.94;6208543;23;20031;-68
2022/10/07 04:44:59;;;;;;;9.07;4.15;;;4.20;99.90;;;3.51;100.00;98315.94;6204881;23;20021;-68
2022/10/07 04:47:26;;;;;;;9.25;4.07;;;4.20;99.90;;;3.53;100.00;98313.34;6206589;23;20032;-68
2022/10/07 04:49:53;;;;;;;9.15;3.58;;;4.20;99.90;;;3.41;100.00;98321.94;6205864;23;20025;-68
2022/10/07 04:52:20;;;;;;;11.98;3.97;;;4.20;99.90;;;3.38;100.00;98309.13;6231777;23;20017;-67
2022/10/07 04:54:47;;;;;;;10.02;3.38;;;4.20;99.90;;;3.44;100.00;98305.69;6207398;23;20024;-68
2022/10/07 04:57:14;;;;;;;10.10;4.10;;;4.10;99.90;;;3.51;100.00;98303.13;6206928;23;20087;-68
2022/10/07 04:59:40;;;;;;;15.68;4.28;;;4.10;99.90;;;3.49;100.00;98309.09;6207764;23;20024;-69
2022/10/07 05:02:09;;;;;;;8.40;3.10;;;4.20;99.90;;;3.47;100.00;98298.00;6205999;23;20608;-68
2022/10/07 05:04:36;;;;;;;12.43;4.20;;;4.20;99.90;;;3.36;100.00;98292.88;6205053;23;20047;-68
2022/10/07 05:07:03;;;;;;;12.38;4.13;;;4.10;99.90;;;3.34;100.00;98300.56;6206619;23;20055;-68
2022/10/07 05:09:30;;;;;;;12.65;5.05;;;4.10;99.90;;;3.33;100.00;98301.44;6207609;23;20024;-69
2022/10/07 05:11:57;;;;;;;12.02;4.97;;;4.00;99.90;;;3.44;100.00;98290.28;6206736;23;20028;-68
2022/10/07 05:14:24;;;;;;;9.32;4.30;;;4.10;99.90;;;3.44;100.00;98290.28;6208155;23;20099;-68
2022/10/07 05:16:52;;;;;;;10.73;4.95;;;4.20;99.90;;;3.43;100.00;98281.75;6207897;23;20021;-69
2022/10/07 05:19:19;;;;;;;12.65;5.03;;;4.20;99.90;;;3.52;100.00;98283.44;6207544;23;20028;-70
2022/10/07 05:21:46;;;;;;;11.95;5.03;;;4.20;99.90;;;3.49;100.00;98283.41;6208551;23;20067;-69
2022/10/07 05:24:13;;;;;;;11.77;4.50;;;4.20;99.90;;;3.49;100.00;98279.16;6207270;23;20035;-69
2022/10/07 05:26:40;;;;;;;11.80;4.07;;;4.20;99.90;;;3.40;100.00;98283.44;6208897;23;20024;-70
2022/10/07 05:29:07;;;;;;;9.30;3.58;;;4.20;99.90;;;3.44;100.00;98283.44;6207265;23;20024;-70
2022/10/07 05:31:34;;;;;;;10.95;3.70;;;4.10;99.90;;;3.44;100.00;98283.44;6210016;23;20024;-69
2022/10/07 05:34:01;;;;;;;13.10;5.03;;;4.10;99.90;;;3.46;100.00;98284.28;6207640;23;20083;-69
2022/10/07 05:36:28;;;;;;;10.60;4.32;;;4.20;99.90;;;3.42;100.00;98280.03;6209412;23;20020;-69
2022/10/07 05:38:58;;;;;;;29.77;12.27;;;4.10;99.90;;;3.29;100.00;98278.38;6209977;23;20075;-69
2022/10/07 05:41:28;;;;;;;27.88;12.75;;;4.10;99.90;;;3.21;100.00;98280.06;6208071;23;20020;-69
2022/10/07 05:43:55;;;;;;;32.17;14.30;;;4.10;99.90;;;3.33;100.00;98278.34;6209624;23;20025;-70
2022/10/07 05:46:22;;;;;;;38.70;17.67;;;4.10;99.90;;;3.41;100.00;98275.75;6209271;23;20048;-69
2022/10/07 05:48:52;;;;;;;43.40;20.80;;;4.10;99.90;;;3.52;100.00;98274.00;6208945;23;20020;-69
2022/10/07 05:51:23;;;;;;;35.05;17.13;;;4.20;99.90;;;3.55;100.00;98274.00;6207903;23;20104;-69
2022/10/07 05:53:56;;;;;;;28.83;15.45;;;4.20;99.90;;;3.51;100.00;98271.44;6210110;23;20021;-69
2022/10/07 05:56:24;;;;;;;26.92;12.57;;;4.30;99.90;;;3.43;100.00;98276.59;6209648;23;20017;-69
2022/10/07 05:58:52;;;;;;;34.38;13.25;;;4.30;99.90;;;3.44;100.00;98278.28;6208565;23;20034;-69
2022/10/07 06:01:22;;;;;;;27.08;13.20;;;4.20;99.90;;;3.47;100.00;98275.75;6209567;23;20087;-69
2022/10/07 06:03:58;;;;;;;32.08;14.50;;;4.20;99.90;;;3.40;100.00;98273.19;6206856;23;20748;-69
2022/10/07 06:06:25;;;;;;;24.05;11.88;;;4.20;99.90;;;3.46;100.00;98270.59;6209312;23;20747;-69
2022/10/07 06:08:53;;;;;;;28.85;13.18;;;4.30;99.90;;;3.47;100.00;98268.03;6209165;23;20024;-69
2022/10/07 06:14:05;;;;;;;31.75;16.33;;;4.30;99.90;;;3.52;100.00;98263.75;6209690;23;20095;-68
2022/10/07 06:16:32;;;;;;;28.05;14.48;;;4.30;99.90;;;3.60;100.00;98265.44;6208243;23;20027;-67
2022/10/07 06:18:59;;;;;;;34.88;16.25;;;4.40;99.90;;;3.59;100.00;98274.00;6209454;23;20032;-68
2022/10/07 06:21:26;;;;;;;27.35;13.20;;;4.40;99.90;;;3.63;100.00;98265.44;6209557;23;20119;-68
2022/10/07 06:23:57;;;;;;;36.38;16.13;;;4.40;99.90;;;3.65;100.00;98271.38;6217135;23;20024;-68
2022/10/07 06:26:24;;;;;;;30.48;14.85;;;4.40;99.90;;;3.65;100.00;98264.56;6218736;23;20104;-68
2022/10/07 06:28:51;;;;;;;28.75;14.40;;;4.50;99.90;;;3.63;100.00;98265.44;6219463;23;20036;-68
2022/10/07 06:31:22;;;;;;;25.48;12.45;;;4.50;99.90;;;3.68;100.00;98266.25;6218710;23;20031;-68
2022/10/07 06:33:49;;;;;;;24.75;11.70;;;4.60;99.90;;;3.80;100.00;98262.78;6209996;23;20465;-66
2022/10/07 06:36:17;;;;;;;22.02;11.15;;;4.60;99.90;;;3.87;100.00;98262.72;6209329;23;20028;-69
2022/10/07 06:38:49;;;;;;;21.20;10.82;;;4.70;99.90;;;3.92;100.00;98272.97;6209977;23;20031;-68
2022/10/07 06:41:17;;;;;;;23.13;10.95;;;4.70;99.90;;;3.93;100.00;98267.84;6209051;23;20031;-68
2022/10/07 06:43:44;;;;;;;22.58;11.90;;;4.80;99.90;;;3.97;100.00;98271.28;6208217;23;20126;-68
2022/10/07 06:46:17;;;;;;;24.75;11.68;;;4.80;99.90;;;4.14;100.00;98264.31;6208638;23;20036;-68
2022/10/07 06:48:45;;;;;;;;;;;4.90;99.90;;;4.13;100.00;98265.19;6206297;23;20021;-68
2022/10/07 06:51:18;;;;;;;23.30;12.02;;;5.00;99.90;;;4.24;100.00;98272.81;6232152;23;19923;-68
2022/10/07 06:53:50;;;;;;;43.25;21.13;;;5.10;99.90;;;4.17;100.00;98279.72;6206720;23;20025;-69
2022/10/07 06:56:17;;;;;;;53.92;31.25;;;5.10;99.90;;;4.31;100.00;98273.63;6207625;23;20024;-68
2022/10/07 06:58:44;;;;;;;54.47;29.98;;;5.20;99.90;;;4.50;100.00;98269.22;6208022;23;20024;-68
2022/10/07 07:01:11;;;;;;;38.08;21.65;;;5.30;99.90;;;4.60;100.00;98270.84;6206760;23;20812;-68
2022/10/07 07:03:39;;;;;;;23.38;13.57;;;5.40;99.90;;;4.67;100.00;98264.78;6208893;23;20078;-68
2022/10/07 07:06:07;;;;;;;17.92;9.82;;;5.50;99.90;;;4.77;100.00;98268.16;6209032;23;20027;-68
2022/10/07 07:08:34;;;;;;;17.02;7.85;;;5.60;99.90;;;4.86;100.00;98262.94;6206811;23;20031;-68
2022/10/07 07:13:54;;;;;;;22.30;10.73;;;5.90;99.90;;;5.27;100.00;98253.09;6208643;23;20021;-68
2022/10/07 07:16:23;;;;;;;21.23;11.93;;;6.10;99.90;;;5.28;100.00;98249.66;6206158;23;20032;-68
2022/10/07 07:18:56;;;;;;;20.77;12.00;;;6.20;99.90;;;5.36;100.00;98256.44;6182209;23;20043;-68
2022/10/07 07:21:24;;;;;;;20.30;11.95;;;6.30;99.90;;;5.42;100.00;98253.78;6208399;23;20047;-67
2022/10/07 07:23:51;;;;;;;23.08;11.35;;;6.50;99.90;;;5.61;100.00;98240.69;6207578;23;20056;-68
2022/10/07 07:26:19;;;;;;;20.33;11.23;;;6.60;99.90;;;5.90;100.00;98234.34;6208345;23;20042;-68
2022/10/07 07:28:58;;;;;;;15.63;8.57;;;7.00;99.90;;;6.42;100.00;98231.88;6206091;23;20024;-68
2022/10/07 07:31:27;;;;;;;13.25;7.53;;;7.50;99.90;;;7.26;100.00;98221.84;6206964;23;20100;-69
2022/10/07 07:34:00;;;;;;;10.30;6.35;;;8.10;99.90;;;8.30;100.00;98211.06;6208183;23;20023;-69
2022/10/07 07:36:32;;;;;;;17.45;4.80;;;8.90;99.90;;;9.31;100.00;98193.88;6206677;23;20025;-68
2022/10/07 07:39:03;;;;;;;9.20;3.42;;;9.60;99.90;;;10.37;100.00;98185.56;6206132;23;20052;-68
2022/10/07 07:41:33;;;;;;;8.32;3.20;;;10.30;99.90;;;11.13;100.00;98183.88;6207241;23;20069;-69
2022/10/07 07:44:04;;;;;;;8.07;2.97;;;11.10;99.90;;;11.94;100.00;98173.13;6207442;23;20036;-67
2022/10/07 07:46:40;;;;;;;12.25;2.13;;;11.80;99.90;;;12.12;100.00;98177.59;6205040;23;20036;-67
2022/10/07 07:49:09;;;;;;;5.32;1.80;;;12.40;99.90;;;12.21;100.00;98186.81;6207284;23;20016;-67
2022/10/07 07:51:37;;;;;;;6.38;1.20;;;12.60;99.90;;;12.40;100.00;98196.50;6205888;23;20016;-67
2022/10/07 07:54:04;;;;;;;6.93;1.50;;;12.70;99.90;;;12.54;100.00;98221.09;6205525;23;20025;-67
2022/10/07 07:56:31;;;;;;;10.50;2.45;;;12.80;99.90;;;12.06;100.00;98231.66;6207451;23;20020;-67
2022/10/07 07:59:03;;;;;;;11.30;2.42;;;13.00;99.90;;;12.94;100.00;98218.59;6205887;23;20051;-67
2022/10/07 08:01:34;;;;;;;7.50;2.00;;;13.20;99.90;;;13.13;100.00;98216.88;6205141;23;20542;-67
2022/10/07 08:04:02;;;;;;;6.25;1.98;;;13.50;99.90;;;13.06;100.00;98230.25;6206901;23;20047;-67
2022/10/07 08:06:30;;;;;;;8.70;2.85;;;13.70;99.90;;;13.38;100.00;98242.78;6206520;23;20425;-67
2022/10/07 08:08:58;;;;;;;6.32;1.77;;;14.10;99.90;;;14.44;100.00;98235.38;6207290;23;20027;-67
2022/10/07 08:11:26;;;;;;;8.50;2.00;;;14.50;99.90;;;14.81;100.00;98244.06;6206042;23;20087;-67
2022/10/07 08:13:55;;;;;;;6.75;1.70;;;14.90;99.90;;;15.39;100.00;98239.44;6180039;23;20020;-67
2022/10/07 08:16:24;;;;;;;5.38;1.48;;;15.30;99.90;;;15.16;100.00;98251.91;6206489;23;20028;-67
2022/10/07 08:18:54;;;;;;;8.10;1.63;;;15.80;99.90;;;16.14;100.00;98248.56;6206389;23;20217;-67
2022/10/07 08:21:26;;;;;;;6.88;1.38;;;;;;;16.37;100.00;98259.56;6205504;23;20100;-67
2022/10/07 08:23:56;;;;;;;5.22;1.00;;;;;;;16.16;100.00;98278.16;6207408;23;20352;-67
2022/10/07 08:26:24;;;;;;;6.80;1.20;;;;;;;15.44;100.00;98284.53;6206578;23;20032;-68
2022/10/07 08:28:51;;;;;;;8.18;1.13;;;16.40;99.90;;;15.12;100.00;98287.00;6206877;23;20056;-68
2022/10/07 08:31:19;;;;;;;9.02;1.52;;;16.30;99.90;;;14.84;100.00;98283.09;6205063;23;20028;-67
2022/10/07 08:33:48;;;;;;;8.25;1.17;;;16.10;99.90;;;14.67;100.00;98283.09;6206543;23;20396;-67
2022/10/07 08:36:20;;;;;;;9.40;1.45;;;16.00;99.90;;;14.26;100.00;98277.19;6207023;23;20467;-67
2022/10/07 08:38:48;;;;;;;9.80;1.67;;;15.80;99.90;;;14.37;100.00;98275.75;6204970;23;20368;-68
2022/10/07 08:41:25;;;;;;;10.07;1.30;;;16.10;99.90;;;14.94;100.00;98270.47;6205480;23;20043;-68
2022/10/07 08:43:51;;;;;;;6.10;1.58;;;16.20;99.90;;;14.88;100.00;98275.97;6206634;23;20260;-67
2022/10/07 08:46:26;;;;;;;5.75;1.15;;;16.20;99.90;;;14.90;100.00;98273.31;6206157;23;20127;-67
2022/10/07 08:49:05;;;;;;;8.90;1.90;;;16.30;99.90;;;14.71;100.00;98281.16;6205099;23;20065;-67
2022/10/07 08:51:43;;;;;;;5.03;1.30;;;16.50;99.90;;;14.73;100.00;98285.41;6206497;23;20653;-67
2022/10/07 08:54:14;;;;;;;5.07;1.27;;;16.70;99.90;;;14.56;100.00;98294.06;6207291;23;20048;-67
2022/10/07 08:56:42;;;;;;;6.93;1.07;;;16.50;99.90;;;15.12;100.00;98275.69;6204403;23;20448;-67
2022/10/07 08:59:22;;;;;;;11.27;1.35;;;16.30;99.90;;;14.88;100.00;98282.97;6206538;23;20361;-67
2022/10/07 09:02:27;;;;;;;4.75;1.17;;;16.10;99.90;;;14.54;100.00;98281.94;6203336;23;20017;-67
2022/10/07 09:05:11;;;;;;;5.93;1.30;;;15.80;99.90;;;14.71;100.00;98276.81;6203559;23;20031;-67
2022/10/07 09:07:47;;;;;;;6.85;1.10;;;15.50;99.90;;;14.29;100.00;98272.66;6207944;23;20020;-67
2022/10/07 09:10:34;;;;;;;9.20;1.48;;;15.20;99.90;;;14.14;100.00;98273.34;6207594;23;20486;-67
2022/10/07 09:13:12;;;;;;;15.20;2.05;;;14.90;99.90;;;14.20;100.00;98270.47;6207543;23;20036;-67
2022/10/07 09:16:06;;;;;;;8.32;2.05;;;14.70;99.90;;;14.21;100.00;98273.03;6232089;23;20043;-67
2022/10/07 09:18:41;;;;;;;7.97;1.80;;;14.70;99.90;;;14.33;100.00;98276.81;6206048;23;20323;-67
2022/10/07 09:21:16;;;;;;;10.15;1.40;;;14.60;99.90;;;14.10;100.00;98270.06;6206183;23;20637;-67
2022/10/07 09:23:44;;;;;;;9.88;1.00;;;14.50;99.90;;;13.97;100.00;98264.53;6204688;23;20092;-66
2022/10/07 09:26:15;;;;;;;13.43;1.50;;;14.50;99.90;;;13.83;100.00;98264.31;6205716;23;20106;-66
2022/10/07 09:28:42;;;;;;;7.10;1.10;;;14.40;99.90;;;13.83;100.00;98256.47;6205178;23;20055;-67
2022/10/07 09:31:13;;;;;;;9.23;1.35;;;14.30;99.90;;;13.58;100.00;98246.28;6207387;23;20090;-67
2022/10/07 09:33:44;;;;;;;10.15;1.38;;;14.30;99.90;;;13.44;100.00;98246.06;6205649;23;20414;-67
2022/10/07 09:36:18;;;;;;;9.25;1.23;;;14.30;99.90;;;13.57;100.00;98240.25;6207738;23;20020;-67
2022/10/07 09:38:49;;;;;;;11.10;1.10;;;14.30;99.90;;;13.60;100.00;98227.06;6205225;23;20462;-67
2022/10/07 09:41:16;;;;;;;9.23;1.15;;;14.30;99.90;;;13.63;100.00;98233.06;6181110;23;20047;-69
2022/10/07 09:43:56;;;;;;;6.43;1.00;;;14.40;99.90;;;13.83;100.00;98219.13;6207841;23;20028;-68
2022/10/07 09:46:40;;;;;;;4.80;1.05;;;14.50;99.90;;;13.85;100.00;98217.28;6205131;23;20119;-68
2022/10/07 09:49:27;;;;;;;7.07;0.93;;;14.60;99.90;;;13.96;100.00;98218.47;6205768;23;20056;-69
2022/10/07 09:52:04;;;;;;;7.63;1.35;;;14.70;99.90;;;14.02;100.00;98217.34;6206028;23;20031;-69
2022/10/07 09:54:34;;;;;;;6.20;1.08;;;14.80;99.90;;;14.27;100.00;98214.44;6207382;23;20432;-68
2022/10/07 09:57:03;;;;;;;8.50;1.55;;;15.00;99.90;;;14.51;100.00;98199.34;6205064;23;20045;-68
2022/10/07 09:59:35;;;;;;;7.35;1.25;;;15.20;99.90;;;14.60;100.00;98203.31;6205709;23;20027;-67
2022/10/07 10:02:24;;;;;;;10.48;1.40;;;15.30;99.90;;;14.68;100.00;98185.47;6206138;23;20021;-69
2022/10/07 10:04:54;;;;;;;7.43;1.50;;;15.50;99.90;;;14.44;100.00;98196.19;6207293;23;20020;-66
2022/10/07 10:07:29;;;;;;;7.93;1.33;;;15.50;99.90;;;14.48;100.00;98193.41;6209308;23;20020;-67
2022/10/07 10:10:03;;;;;;;9.43;1.40;;;15.50;99.90;;;14.40;100.00;98185.97;6206318;23;20017;-67
2022/10/07 10:12:36;;;;;;;4.38;1.25;;;15.70;99.90;;;15.05;100.00;98175.78;6206380;23;20024;-67
2022/10/07 10:15:21;;;;;;;9.50;1.40;;;15.90;99.90;;;15.15;100.00;98182.25;6205452;23;20025;-67
2022/10/07 10:17:49;;;;;;;5.80;1.40;;;16.00;99.90;;;14.83;100.00;98196.97;6206678;23;20050;-67
2022/10/07 10:20:22;;;;;;;4.78;1.00;;;16.00;99.90;;;15.21;100.00;98188.91;6208238;23;20031;-67
2022/10/07 10:22:50;;;;;;;6.90;1.45;;;16.00;99.90;;;15.27;100.00;98191.22;6207956;23;20314;-67
2022/10/07 10:29:01;;;;;;;12.23;2.33;;;16.10;99.90;;;14.84;100.00;98181.19;6204801;23;20028;-66
2022/10/07 10:31:53;;;;;;;9.00;2.00;;;15.90;99.90;;;14.81;100.00;98177.91;6204655;23;20243;-68
2022/10/07 10:34:50;;;;;;;11.52;2.50;;;15.80;99.90;;;14.60;100.00;98180.66;6204212;23;20132;-67
2022/10/07 10:37:33;;;;;;;13.82;2.35;;;15.60;99.90;;;14.40;100.00;98175.53;6207171;23;20360;-67
2022/10/07 10:40:37;;;;;;;7.88;1.65;;;15.40;99.90;;;14.51;100.00;98170.63;6203436;23;20020;-66
2022/10/07 10:43:50;;;;;;;11.80;2.25;;;15.50;99.90;;;14.61;100.00;98157.97;6205278;23;20451;-67
2022/10/07 10:46:57;;;;;;;7.32;1.60;;;15.50;99.90;;;14.76;100.00;98159.00;6206532;23;20028;-67
2022/10/07 10:49:44;;;;;;;5.32;1.20;;;15.80;99.90;;;14.74;100.00;98148.59;6207460;23;20055;-67
2022/10/07 10:52:15;;;;;;;7.90;1.90;;;15.80;99.90;;;14.99;100.00;98144.75;6204621;23;20016;-67
2022/10/07 10:54:53;;;;;;;8.48;1.80;;;15.90;99.90;;;15.11;100.00;98151.13;6206259;23;20491;-67
2022/10/07 10:57:45;;;;;;;7.00;1.90;;;16.10;99.90;;;15.20;100.00;98148.03;6207311;23;20031;-67